Time;durP1;ratioP1;P1;durP2;ratioP2;P2;SDS_P1;SDS_P2;PMS_P1;PMS_P2;Temp;Humidity;BMP_temperature;BMP_pressure;BME280_temperature;BME280_humidity;BME280_pressure;Samples;Min_cycle;Max_cycle;Signal;HPM_P1;HPM_P2
2021/04/27 00:00:08;;;;;;;13.65;8.25;;;;;;;11.72;61.40;96770.28;5024699;28;20508;-63
2021/04/27 00:02:33;;;;;;;14.82;8.48;;;;;;;11.30;61.46;96704.13;5023049;28;20510;-63
2021/04/27 00:04:59;;;;;;;14.13;8.45;;;;;;;11.33;61.95;96700.63;5024582;28;20041;-63
2021/04/27 00:07:24;;;;;;;11.43;7.47;;;;;;;11.31;62.16;96685.53;5022340;28;20107;-63
2021/04/27 00:09:50;;;;;;;14.20;7.10;;;;;;;11.48;62.30;96701.50;5024832;28;20041;-65
2021/04/27 00:12:15;;;;;;;13.25;7.85;;;;;;;11.52;62.47;96702.34;5024100;28;20408;-63
2021/04/27 00:14:41;;;;;;;12.10;7.90;;;;;;;11.97;62.26;96768.50;5022957;28;20099;-63
2021/04/27 00:17:07;;;;;;;10.20;7.53;;;;;;;12.05;62.30;96759.84;5024207;28;20060;-63
2021/04/27 00:19:32;;;;;;;14.73;10.75;;;;;;;11.69;62.79;96762.75;5024583;28;20477;-63
2021/04/27 00:21:58;;;;;;;18.90;11.60;;;;;;;11.28;64.92;96769.47;5023656;28;20028;-63
2021/04/27 00:24:24;;;;;;;14.13;9.15;;;;;;;11.37;65.06;96767.16;5024110;28;20036;-62
2021/04/27 00:26:49;;;;;;;19.15;10.60;;;;;;;11.51;64.94;96761.75;5023952;28;20029;-62
2021/04/27 00:29:15;;;;;;;16.67;10.82;;;;;;;11.60;64.94;96770.56;5024640;28;20029;-63
2021/04/27 00:31:41;;;;;;;16.55;9.38;;;;;;;11.60;65.32;96792.75;5022139;28;20132;-63
2021/04/27 00:34:06;;;;;;;10.82;7.25;;;;;;;11.33;65.62;96760.81;5022599;28;20034;-65
2021/04/27 00:36:32;;;;;;;7.82;6.68;;;;;;;11.13;64.64;96717.84;5023768;28;20045;-63
2021/04/27 00:38:58;;;;;;;10.32;6.53;;;;;;;11.73;64.95;96786.56;5024297;28;20491;-63
2021/04/27 00:41:24;;;;;;;13.95;7.82;;;;;;;11.35;66.69;96775.09;5023801;28;20041;-63
2021/04/27 00:43:49;;;;;;;12.23;7.30;;;;;;;11.58;67.37;96795.13;5039584;28;20673;-63
2021/04/27 00:46:15;;;;;;;15.55;7.93;;;;;;;11.50;68.13;96799.00;5021875;28;20578;-63
2021/04/27 00:48:40;;;;;;;10.43;7.90;;;;;;;11.11;70.10;96743.16;5024179;28;20112;-63
2021/04/27 00:51:06;;;;;;;16.10;8.00;;;;;;;10.41;72.61;96660.13;5023386;28;20824;-63
2021/04/27 00:53:32;;;;;;;12.40;7.85;;;;;;;11.33;72.12;96799.63;5023809;28;20077;-63
2021/04/27 00:55:58;;;;;;;14.75;8.88;;;;;;;11.35;71.72;96802.81;5023648;28;20040;-63
2021/04/27 00:58:26;;;;;;;10.15;7.43;;;;;;;11.35;72.16;96791.75;5023968;28;20029;-63
2021/04/27 01:00:52;;;;;;;30.88;17.63;;;;;;;11.32;72.65;96781.38;5021455;28;20033;-65
2021/04/27 01:03:18;;;;;;;22.52;13.13;;;;;;;11.25;74.58;96775.78;5023745;28;20396;-65
2021/04/27 01:05:44;;;;;;;16.00;10.85;;;;;;;10.88;75.72;96744.50;5022107;28;20033;-65
2021/04/27 01:08:42;;;;;;;14.65;9.10;;;;;;;11.16;76.71;96794.72;5024038;28;20415;-66
2021/04/27 01:11:39;;;;;;;18.75;10.85;;;;;;;10.91;77.17;96777.78;5023466;28;20056;-66
2021/04/27 01:14:16;;;;;;;12.73;8.82;;;;;;;10.92;77.54;96786.91;5024157;28;20127;-65
2021/04/27 01:16:54;;;;;;;14.00;8.45;;;;;;;10.54;78.60;96725.13;5021923;28;20555;-65
2021/04/27 01:19:27;;;;;;;12.82;8.68;;;;;;;10.51;78.80;96714.81;5020002;28;20042;-66
2021/04/27 01:21:55;;;;;;;11.98;8.60;;;;;;;11.03;77.63;96790.59;5003404;28;20034;-65
2021/04/27 01:24:34;;;;;;;12.27;8.18;;;;;;;11.03;77.19;96788.63;5003897;28;20156;-66
2021/04/27 01:27:02;;;;;;;10.63;8.10;;;;;;;11.01;77.18;96795.72;5003879;28;20034;-66
2021/04/27 01:29:32;;;;;;;13.38;9.32;;;;;;;11.09;78.04;96802.94;5003969;28;20107;-67
2021/04/27 01:32:01;;;;;;;16.02;12.13;;;;;;;11.14;76.88;96808.94;5003900;28;20034;-68
2021/04/27 01:34:31;;;;;;;17.75;12.02;;;;;;;11.01;77.65;96779.09;5004086;28;20049;-67
2021/04/27 01:36:58;;;;;;;19.08;10.85;;;;;;;10.17;80.01;96638.47;5018019;28;20030;-66
2021/04/27 01:39:27;;;;;;;12.77;10.10;;;;;;;11.15;79.86;96798.63;5003618;28;20049;-67
2021/04/27 01:41:57;;;;;;;14.57;9.45;;;;;;;11.15;79.63;96799.44;5003329;28;20076;-66
2021/04/27 01:44:23;;;;;;;11.35;7.95;;;;;;;11.10;79.85;96796.19;5003747;28;20501;-66
2021/04/27 01:46:50;;;;;;;12.70;8.18;;;;;;;11.21;78.81;96797.09;5018102;28;20038;-66
2021/04/27 01:49:17;;;;;;;12.98;8.45;;;;;;;11.13;79.40;96799.03;5003648;28;20383;-66
2021/04/27 01:51:42;;;;;;;10.60;7.95;;;;;;;11.12;78.98;96799.41;5003533;28;20046;-67
2021/04/27 01:54:09;;;;;;;9.45;7.80;;;;;;;10.95;79.33;96755.66;5004140;28;20659;-66
2021/04/27 01:56:35;;;;;;;10.55;8.27;;;;;;;11.10;81.15;96791.47;5003038;28;20493;-67
2021/04/27 01:59:01;;;;;;;12.43;8.95;;;;;;;10.52;82.16;96708.09;5003853;28;20068;-65
2021/04/27 02:01:26;;;;;;;10.15;7.85;;;;;;;10.54;81.88;96741.75;5017950;28;20324;-65
2021/04/27 02:03:52;;;;;;;18.00;9.43;;;;;;;10.86;82.63;96774.56;5003447;28;20084;-66
2021/04/27 02:06:17;;;;;;;13.60;8.30;;;;;;;10.91;82.11;96782.56;5002682;28;20560;-64
2021/04/27 02:09:00;;;;;;;14.02;8.27;;;;;;;10.99;82.20;96778.66;5003746;28;20575;-65
2021/04/27 02:11:29;;;;;;;10.90;8.10;;;;;;;10.96;81.86;96773.88;5005462;28;20535;-65
2021/04/27 02:13:54;;;;;;;11.50;9.15;;;;;;;10.78;82.21;96767.34;5007449;28;20042;-66
2021/04/27 02:16:24;;;;;;;11.25;8.38;;;;;;;10.85;82.82;96772.97;5006784;28;20390;-65
2021/04/27 02:18:58;;;;;;;15.13;9.00;;;;;;;10.89;81.61;96779.34;5004837;28;20049;-65
2021/04/27 02:21:25;;;;;;;16.80;8.70;;;;;;;10.99;81.33;96773.13;5006357;28;20037;-65
2021/04/27 02:23:52;;;;;;;13.75;9.27;;;;;;;10.93;81.15;96767.13;5006499;28;20062;-65
2021/04/27 02:26:18;;;;;;;12.18;8.30;;;;;;;10.97;80.57;96758.88;5006164;28;20057;-66
2021/04/27 02:28:45;;;;;;;11.65;8.48;;;;;;;11.03;79.99;96755.38;5005765;28;20041;-65
2021/04/27 02:31:11;;;;;;;12.27;7.80;;;;;;;11.04;80.51;96747.84;5006596;28;20042;-65
2021/04/27 02:33:42;;;;;;;10.40;8.38;;;;;;;11.18;79.13;96742.44;5007348;28;20788;-65
2021/04/27 02:36:08;;;;;;;15.27;8.55;;;;;;;10.77;80.26;96688.16;5006500;28;20692;-66
2021/04/27 02:38:34;;;;;;;11.57;8.07;;;;;;;10.51;80.13;96664.19;5006640;28;20042;-66
2021/04/27 02:41:00;;;;;;;13.43;8.40;;;;;;;9.86;79.47;96550.34;5005934;28;20421;-66
2021/04/27 02:43:26;;;;;;;12.45;8.30;;;;;;;10.93;80.23;96758.00;5005008;28;20034;-65
2021/04/27 02:45:52;;;;;;;11.70;9.02;;;;;;;10.70;81.71;96739.56;5006008;28;20030;-67
2021/04/27 02:48:21;;;;;;;12.95;8.32;;;;;;;11.00;80.81;96761.66;5006770;28;20034;-69
2021/04/27 02:50:53;;;;;;;12.05;7.65;;;;;;;10.97;80.96;96765.19;5005605;28;20417;-66
2021/04/27 02:53:19;;;;;;;10.63;8.30;;;;;;;10.83;82.15;96758.72;5006833;28;20405;-66
2021/04/27 02:55:45;;;;;;;11.82;8.55;;;;;;;9.86;82.99;96605.66;5004133;28;20038;-66
2021/04/27 02:58:12;;;;;;;12.35;9.20;;;;;;;10.77;83.29;96766.53;5006251;28;20063;-66
2021/04/27 03:00:39;;;;;;;10.90;8.30;;;;;;;10.87;82.57;96749.25;5005734;28;20034;-66
2021/04/27 03:03:05;;;;;;;13.88;9.43;;;;;;;10.89;82.16;96751.66;5004780;28;20050;-67
2021/04/27 03:05:31;;;;;;;14.07;9.48;;;;;;;10.63;81.53;96689.63;5005679;28;20025;-66
2021/04/27 03:07:56;;;;;;;15.20;11.90;;;;;;;11.17;80.49;96754.72;5005781;28;20077;-66
2021/04/27 03:10:22;;;;;;;16.17;10.80;;;;;;;11.17;79.75;96746.38;5005572;28;20040;-67
2021/04/27 03:12:47;;;;;;;14.88;11.00;;;;;;;10.93;80.54;96717.25;5020799;28;20038;-65
2021/04/27 03:15:14;;;;;;;13.65;10.75;;;;;;;11.14;80.75;96758.25;5005658;28;20049;-65
2021/04/27 03:17:39;;;;;;;14.77;10.80;;;;;;;10.93;79.82;96727.53;5005895;28;20046;-65
2021/04/27 03:20:07;;;;;;;12.25;9.55;;;;;;;11.28;77.08;96736.19;5015023;28;20124;-65
2021/04/27 03:22:33;;;;;;;10.77;9.48;;;;;;;11.29;79.30;96743.31;5024745;28;20455;-65
2021/04/27 03:24:58;;;;;;;14.63;9.60;;;;;;;10.89;80.01;96674.06;5025779;28;20029;-65
2021/04/27 03:27:24;;;;;;;12.18;9.35;;;;;;;11.27;81.38;96740.16;5023601;28;20044;-65
2021/04/27 03:29:50;;;;;;;13.02;9.20;;;;;;;11.16;81.42;96730.94;5024090;28;20420;-65
2021/04/27 03:32:15;;;;;;;12.50;9.38;;;;;;;11.09;80.83;96705.91;5025357;28;20040;-65
2021/04/27 03:34:42;;;;;;;20.33;10.98;;;;;;;10.44;80.38;96576.28;5024051;28;20500;-65
2021/04/27 03:37:08;;;;;;;15.77;9.63;;;;;;;11.36;80.12;96710.13;5024979;28;20049;-65
2021/04/27 03:39:34;;;;;;;17.52;10.57;;;;;;;10.94;80.22;96648.78;5025517;28;20026;-65
2021/04/27 03:42:00;;;;;;;17.40;10.25;;;;;;;11.36;79.75;96715.69;5024832;28;20041;-65
2021/04/27 03:44:25;;;;;;;15.55;10.05;;;;;;;11.46;78.88;96710.22;5023586;28;20575;-66
2021/04/27 03:46:51;;;;;;;11.77;8.20;;;;;;;10.85;77.84;96617.81;5024671;28;20029;-66
2021/04/27 03:49:16;;;;;;;11.75;8.60;;;;;;;11.04;77.28;96654.41;5025516;28;20435;-65
2021/04/27 03:51:42;;;;;;;12.45;9.38;;;;;;;11.38;77.49;96707.78;5023260;28;20053;-65
2021/04/27 03:54:07;;;;;;;15.82;9.98;;;;;;;10.79;78.93;96622.09;5023114;28;20076;-66
2021/04/27 03:56:33;;;;;;;20.75;12.50;;;;;;;11.19;79.76;96700.47;5022758;28;20033;-65
2021/04/27 03:58:59;;;;;;;18.33;12.65;;;;;;;11.22;79.74;96712.78;5023259;28;20075;-67
2021/04/27 04:01:24;;;;;;;15.27;10.88;;;;;;;10.64;79.70;96607.31;5024039;28;20041;-65
2021/04/27 04:03:50;;;;;;;18.95;11.48;;;;;;;11.39;79.53;96721.25;5025042;28;20045;-66
2021/04/27 04:06:15;;;;;;;23.52;15.23;;;;;;;11.49;78.21;96714.22;5038979;28;20086;-65
2021/04/27 04:08:41;;;;;;;23.60;15.23;;;;;;;11.06;79.62;96659.56;5024900;28;20033;-66
2021/04/27 04:11:06;;;;;;;20.15;13.35;;;;;;;11.26;80.34;96708.06;5024132;28;20034;-66
2021/04/27 04:13:32;;;;;;;17.90;13.45;;;;;;;11.06;79.86;96654.03;5023195;28;20558;-67
2021/04/27 04:15:58;;;;;;;13.93;10.70;;;;;;;10.81;78.80;96623.34;5024114;28;20581;-67
2021/04/27 04:18:24;;;;;;;14.70;11.10;;;;;;;11.08;77.98;96648.91;5024783;28;20041;-66
2021/04/27 04:20:49;;;;;;;23.75;12.63;;;;;;;11.66;77.17;96731.03;5023630;28;20041;-65
2021/04/27 04:23:15;;;;;;;20.83;13.75;;;;;;;11.77;77.52;96731.09;5024332;28;20042;-67
2021/04/27 04:25:42;;;;;;;29.33;15.80;;;;;;;11.33;76.79;96638.81;5023987;28;20393;-66
2021/04/27 04:28:07;;;;;;;30.73;16.08;;;;;;;11.29;76.09;96610.25;5039183;28;20130;-66
2021/04/27 04:30:33;;;;;;;26.13;16.73;;;;;;;11.73;75.35;96674.75;5023776;28;20576;-65
2021/04/27 04:32:59;;;;;;;24.50;15.13;;;;;;;11.79;75.52;96684.34;5024153;28;20091;-67
2021/04/27 04:35:26;;;;;;;15.88;10.77;;;;;;;12.04;75.05;96763.00;5022031;28;20033;-65
2021/04/27 04:37:52;;;;;;;17.58;11.90;;;;;;;12.11;74.97;96757.47;5023904;28;20243;-65
2021/04/27 04:40:17;;;;;;;15.75;9.32;;;;;;;8.40;75.17;96236.00;5023439;28;20036;-65
2021/04/27 04:42:43;;;;;;;16.83;10.30;;;;;;;11.67;75.48;96687.41;5024387;28;20052;-66
2021/04/27 04:45:11;;;;;;;16.50;11.00;;;;;;;11.85;77.21;96743.84;5023760;28;20061;-67
2021/04/27 04:47:38;;;;;;;16.17;11.38;;;;;;;11.78;78.04;96743.78;5022422;28;20038;-65
2021/04/27 04:50:05;;;;;;;18.38;10.90;;;;;;;11.65;78.82;96740.50;5022082;28;20138;-65
2021/04/27 04:52:31;;;;;;;19.83;10.65;;;;;;;11.59;78.82;96719.81;5023755;28;20561;-65
2021/04/27 04:54:57;;;;;;;14.07;10.35;;;;;;;11.78;77.84;96743.78;5023569;28;20041;-67
2021/04/27 04:57:22;;;;;;;13.32;9.70;;;;;;;11.65;77.88;96767.47;5023212;28;20042;-64
2021/04/27 04:59:48;;;;;;;16.38;10.52;;;;;;;11.61;78.11;96777.69;5023941;28;20116;-65
2021/04/27 05:02:14;;;;;;;18.05;11.10;;;;;;;11.80;76.98;96769.16;5023658;28;20075;-66
2021/04/27 05:04:40;;;;;;;17.85;10.60;;;;;;;11.88;77.10;96785.50;5024224;28;20479;-65
2021/04/27 05:07:09;;;;;;;27.17;11.27;;;;;;;12.07;77.16;96773.34;5021465;28;20107;-66
2021/04/27 05:09:35;;;;;;;19.40;12.43;;;;;;;12.26;76.94;96773.06;5023594;28;20029;-66
2021/04/27 05:12:01;;;;;;;31.77;12.50;;;;;;;12.48;76.40;96765.63;5023389;28;20033;-65
2021/04/27 05:14:26;;;;;;;18.80;12.18;;;;;;;12.43;75.29;96714.03;5023848;28;20037;-65
2021/04/27 05:16:52;;;;;;;20.95;12.43;;;;;;;12.97;74.06;96761.09;5023337;28;20067;-65
2021/04/27 05:19:18;;;;;;;20.00;12.00;;;;;;;13.12;71.38;96773.84;5024070;28;20095;-65
2021/04/27 05:21:44;;;;;;;15.10;10.15;;;;;;;13.18;70.13;96775.06;5023344;28;20034;-65
2021/04/27 05:24:10;;;;;;;11.07;8.65;;;;;;;12.55;66.90;96727.56;5024246;28;20120;-65
2021/04/27 05:26:36;;;;;;;14.85;8.05;;;;;;;12.95;68.30;96760.69;5023153;28;20611;-66
2021/04/27 05:29:02;;;;;;;8.95;7.28;;;;;;;12.74;67.66;96677.22;5024173;28;20515;-65
2021/04/27 05:31:28;;;;;;;11.90;8.15;;;;;;;12.77;67.60;96662.53;5023335;28;20539;-65
2021/04/27 05:33:53;;;;;;;13.65;9.05;;;;;;;12.73;67.12;96633.13;5023922;28;20069;-65
2021/04/27 05:36:18;;;;;;;13.10;8.30;;;;;;;13.65;66.38;96769.19;5020684;28;20511;-64
2021/04/27 05:38:44;;;;;;;10.98;8.15;;;;;;;13.52;66.99;96775.53;5021489;28;20045;-63
2021/04/27 05:41:09;;;;;;;14.23;8.95;;;;;;;13.68;65.85;96762.03;5022033;28;20048;-64
2021/04/27 05:43:35;;;;;;;9.35;7.07;;;;;;;13.32;66.32;96750.09;5018826;28;20129;-63
2021/04/27 05:46:00;;;;;;;13.50;8.10;;;;;;;13.24;69.07;96769.91;5014887;28;20022;-66
2021/04/27 05:48:26;;;;;;;14.73;8.02;;;;;;;12.41;67.75;96571.94;5022463;28;20338;-65
2021/04/27 05:50:51;;;;;;;12.80;8.07;;;;;;;12.77;67.05;96640.28;5014376;28;20572;-63
2021/04/27 05:53:17;;;;;;;14.95;7.70;;;;;;;14.02;64.76;96748.50;5025200;28;20063;-65
2021/04/27 05:55:42;;;;;;;9.82;7.15;;;;;;;12.79;62.36;96587.91;5017062;28;20031;-69
2021/04/27 05:58:09;;;;;;;10.00;7.47;;;;;;;13.79;62.59;96731.41;5016346;28;20405;-63
2021/04/27 06:00:35;;;;;;;13.85;9.18;;;;;;;13.64;63.35;96674.97;5005238;28;20252;-66
2021/04/27 06:03:01;;;;;;;14.60;10.63;;;;;;;14.18;63.32;96726.59;5020049;28;20043;-66
2021/04/27 06:05:26;;;;;;;16.85;9.23;;;;;;;14.33;62.72;96719.81;5026477;28;20100;-65
2021/04/27 06:07:52;;;;;;;21.67;9.85;;;;;;;14.34;62.67;96724.16;5026558;28;20037;-64
2021/04/27 06:10:17;;;;;;;21.98;10.57;;;;;;;14.17;62.17;96658.13;5024548;28;20414;-71
2021/04/27 06:12:43;;;;;;;12.70;9.95;;;;;;;14.64;62.16;96724.47;5022860;28;20427;-73
2021/04/27 06:15:08;;;;;;;14.65;9.77;;;;;;;15.04;60.31;96721.09;5028704;28;20029;-70
2021/04/27 06:17:35;;;;;;;16.90;10.00;;;;;;;15.21;59.43;96722.97;5018874;28;20405;-68
2021/04/27 06:20:06;;;;;;;16.33;11.18;;;;;;;15.63;56.24;96719.13;5023037;28;20097;-63
2021/04/27 06:22:32;;;;;;;16.70;10.70;;;;;;;15.77;55.71;96702.25;5013757;28;20064;-66
2021/04/27 06:24:58;;;;;;;15.05;10.27;;;;;;;15.91;54.17;96719.69;5015677;28;20065;-65
2021/04/27 06:27:27;;;;;;;13.77;8.65;;;;;;;15.42;52.90;96625.19;5024731;28;20033;-66
2021/04/27 06:29:53;;;;;;;10.15;7.60;;;;;;;15.81;51.48;96683.47;5026284;28;20032;-62
2021/04/27 06:32:21;;;;;;;12.45;7.30;;;;;;;16.05;49.34;96658.09;5023217;28;20045;-67
2021/04/27 06:34:47;;;;;;;7.20;5.70;;;;;;;15.36;49.27;96687.41;5025909;28;20065;-64
2021/04/27 06:37:13;;;;;;;21.50;9.20;;;;;;;14.73;53.04;96644.00;5019180;28;20467;-65
2021/04/27 06:39:39;;;;;;;13.75;7.63;;;;;;;14.59;52.56;96574.38;5013951;28;20110;-62
2021/04/27 06:42:05;;;;;;;13.00;6.72;;;;;;;15.07;49.69;96600.31;5018887;28;20175;-65
2021/04/27 06:44:31;;;;;;;12.93;6.78;;;;;;;13.70;48.74;96370.75;5020950;28;20682;-61
2021/04/27 06:46:56;;;;;;;9.95;5.78;;;;;;;15.09;49.04;96656.50;5025277;28;20034;-64
2021/04/27 06:49:22;;;;;;;6.30;5.20;;;;;;;15.71;49.15;96703.91;5019978;28;20030;-66
2021/04/27 06:51:47;;;;;;;7.35;5.68;;;;;;;14.75;50.40;96666.66;5022664;28;20053;-64
2021/04/27 06:54:13;;;;;;;8.98;5.47;;;;;;;13.59;51.64;96503.59;5025597;28;20701;-66
2021/04/27 06:56:38;;;;;;;10.80;6.10;;;;;;;12.29;52.80;96325.19;5023623;28;20377;-63
2021/04/27 06:59:06;;;;;;;8.25;5.63;;;;;;;15.47;51.20;96688.94;5011745;28;20025;-64
2021/04/27 07:01:31;;;;;;;11.90;6.68;;;;;;;15.82;50.85;96693.44;5003864;28;20037;-65
2021/04/27 07:03:57;;;;;;;12.48;7.13;;;;;;;15.16;50.60;96606.22;5023788;28;20033;-62
2021/04/27 07:06:22;;;;;;;9.50;6.55;;;;;;;15.32;50.81;96651.16;5018563;28;20029;-62
2021/04/27 07:08:48;;;;;;;8.88;6.20;;;;;;;13.65;49.94;96309.97;5022068;28;20056;-62
2021/04/27 07:11:13;;;;;;;13.80;7.50;;;;;;;16.02;49.28;96658.91;5017197;28;20057;-65
2021/04/27 07:13:39;;;;;;;8.07;5.55;;;;;;;15.97;49.82;96698.47;5023471;28;20045;-66
2021/04/27 07:16:05;;;;;;;8.50;5.20;;;;;;;15.38;49.60;96696.16;5038090;28;20405;-65
2021/04/27 07:18:30;;;;;;;6.18;5.07;;;;;;;15.16;49.67;96650.88;5024270;28;20412;-69
2021/04/27 07:20:56;;;;;;;7.95;4.43;;;;;;;14.09;50.08;96562.66;5009199;28;20128;-64
2021/04/27 07:23:21;;;;;;;5.32;4.80;;;;;;;12.81;52.47;96496.59;5012257;28;20110;-62
2021/04/27 07:25:47;;;;;;;9.05;5.15;;;;;;;15.20;50.60;96707.44;5014345;28;20036;-67
2021/04/27 07:28:13;;;;;;;12.07;5.63;;;;;;;15.02;51.46;96695.59;5023758;28;20092;-66
2021/04/27 07:30:38;;;;;;;7.38;5.10;;;;;;;14.88;51.21;96712.41;5014323;28;20041;-64
2021/04/27 07:33:04;;;;;;;8.43;5.22;;;;;;;15.05;51.25;96695.56;5013833;28;20129;-74
2021/04/27 07:35:31;;;;;;;8.73;5.43;;;;;;;14.88;51.34;96690.91;5019027;28;20353;-72
2021/04/27 07:38:00;;;;;;;7.25;5.93;;;;;;;13.29;51.95;96461.56;5021175;28;20037;-68
2021/04/27 07:40:27;;;;;;;19.38;11.10;;;;;;;14.77;50.66;96561.91;5018465;28;20624;-69
2021/04/27 07:42:52;;;;;;;7.13;5.20;;;;;;;14.75;49.82;96591.38;5023325;28;20037;-66
2021/04/27 07:45:17;;;;;;;8.15;5.50;;;;;;;15.90;49.06;96694.97;5022780;28;20428;-66
2021/04/27 07:47:43;;;;;;;9.98;6.18;;;;;;;15.65;49.08;96644.13;5006214;28;20045;-66
2021/04/27 07:50:10;;;;;;;5.65;5.07;;;;;;;15.15;48.36;96576.75;5006740;28;20037;-66
2021/04/27 07:52:38;;;;;;;7.45;5.50;;;;;;;13.41;47.29;96226.66;5005685;28;20485;-64
2021/04/27 07:55:05;;;;;;;10.48;5.80;;;;;;;16.11;46.89;96566.19;5023097;28;20030;-72
2021/04/27 07:57:31;;;;;;;8.15;5.85;;;;;;;16.18;47.72;96684.31;5022556;28;20084;-69
2021/04/27 07:59:56;;;;;;;6.60;5.07;;;;;;;16.93;46.80;96673.03;5022922;28;20029;-66
2021/04/27 08:02:21;;;;;;;7.95;5.65;;;;;;;16.40;46.81;96556.25;5015455;28;20103;-64
2021/04/27 08:04:47;;;;;;;11.98;7.38;;;;;;;17.46;45.65;96642.25;5005550;28;20308;-64
2021/04/27 08:07:13;;;;;;;10.82;7.28;;;;;;;15.12;44.85;96242.81;5022450;28;20041;-70
2021/04/27 08:09:39;;;;;;;7.63;6.10;;;;;;;15.45;44.06;96328.50;5022825;28;20047;-63
2021/04/27 08:12:05;;;;;;;17.75;7.97;;;;;;;17.68;45.41;96669.50;5024122;28;20469;-71
2021/04/27 08:14:30;;;;;;;8.45;5.85;;;;;;;17.36;45.72;96713.19;5022370;28;20041;-73
2021/04/27 08:16:56;;;;;;;9.40;6.22;;;;;;;17.09;43.81;96496.88;5019958;28;20048;-72
2021/04/27 08:19:22;;;;;;;7.78;6.13;;;;;;;18.32;41.68;96618.66;5024431;28;20041;-65
2021/04/27 08:21:47;;;;;;;8.88;6.25;;;;;;;18.97;41.50;96659.78;5009815;28;20432;-65
2021/04/27 08:24:13;;;;;;;9.52;5.60;;;;;;;17.24;40.68;96291.06;5028482;28;20876;-62
2021/04/27 08:26:39;;;;;;;9.95;6.40;;;;;;;19.87;40.27;96651.66;5017148;28;20125;-64
2021/04/27 08:29:05;;;;;;;9.48;5.97;;;;;;;19.42;40.31;96596.19;5014795;28;20033;-63
2021/04/27 08:31:30;;;;;;;6.47;5.82;;;;;;;17.42;42.23;96487.50;5022146;28;20096;-63
2021/04/27 08:33:56;;;;;;;8.27;5.40;;;;;;;18.72;41.25;96620.25;5013843;28;20048;-63
2021/04/27 08:36:21;;;;;;;9.15;5.65;;;;;;;19.04;40.44;96574.63;5019975;28;20092;-65
2021/04/27 08:38:47;;;;;;;8.85;5.95;;;;;;;19.46;40.44;96647.44;5021770;28;20451;-72
2021/04/27 08:41:12;;;;;;;5.95;5.45;;;;;;;19.83;40.01;96645.34;5021161;28;20046;-63
2021/04/27 08:43:38;;;;;;;9.27;6.47;;;;;;;18.98;41.28;96560.31;5017973;28;20037;-63
2021/04/27 08:46:04;;;;;;;6.80;5.88;;;;;;;19.39;41.30;96591.41;5022487;28;20108;-63
2021/04/27 08:48:30;;;;;;;7.80;6.72;;;;;;;20.04;40.30;96625.91;5010532;28;20037;-62
2021/04/27 08:50:56;;;;;;;10.20;6.45;;;;;;;19.47;40.66;96609.69;5030315;28;20524;-63
2021/04/27 08:53:22;;;;;;;6.22;5.57;;;;;;;19.41;40.81;96638.75;5006485;28;20034;-63
2021/04/27 08:55:49;;;;;;;8.02;5.82;;;;;;;19.16;41.35;96600.00;5006859;28;20029;-64
2021/04/27 08:58:15;;;;;;;7.20;6.18;;;;;;;19.86;39.86;96630.41;5003741;28;20030;-68
2021/04/27 09:00:42;;;;;;;8.43;6.05;;;;;;;18.79;40.21;96510.66;5020109;28;20037;-64
2021/04/27 09:03:09;;;;;;;8.48;5.50;;;;;;;19.47;41.65;96614.53;5023633;28;20041;-65
2021/04/27 09:05:39;;;;;;;9.95;6.93;;;;;;;18.87;40.06;96481.19;5022849;28;20051;-66
2021/04/27 09:08:05;;;;;;;6.88;6.18;;;;;;;20.61;39.46;96622.31;5020799;28;20037;-64
2021/04/27 09:10:40;;;;;;;8.27;7.00;;;;;;;20.17;39.92;96561.31;5023228;28;20021;-63
2021/04/27 09:13:17;;;;;;;11.90;6.32;;;;;;;18.20;41.85;96458.69;5023524;28;20092;-63
2021/04/27 09:15:54;;;;;;;7.93;5.90;;;;;;;20.40;40.64;96598.41;5022458;28;20425;-63
2021/04/27 09:18:34;;;;;;;9.93;5.97;;;;;;;20.91;38.71;96593.66;5021859;28;20042;-62
2021/04/27 09:21:06;;;;;;;9.65;6.32;;;;;;;21.18;37.88;96590.44;5020360;28;20037;-63
2021/04/27 09:23:33;;;;;;;8.40;6.60;;;;;;;19.77;39.86;96543.91;5023223;28;20596;-62
2021/04/27 09:26:13;;;;;;;7.53;5.97;;;;;;;20.37;39.72;96592.88;5022674;28;20071;-63
2021/04/27 09:28:41;;;;;;;8.43;6.05;;;;;;;19.58;40.77;96604.59;5024185;28;20059;-65
2021/04/27 09:31:30;;;;;;;7.57;5.72;;;;;;;20.28;39.38;96590.69;5020985;28;20033;-64
2021/04/27 09:34:26;;;;;;;9.45;6.38;;;;;;;20.63;39.08;96584.03;5023818;28;20087;-63
2021/04/27 09:37:06;;;;;;;9.25;6.97;;;;;;;20.61;39.58;96568.84;5037910;28;20033;-63
2021/04/27 09:39:39;;;;;;;12.88;6.53;;;;;;;20.52;39.30;96572.31;5023326;28;20138;-63
2021/04/27 09:42:19;;;;;;;6.80;5.60;;;;;;;20.16;39.68;96576.59;5022876;28;20025;-64
2021/04/27 09:44:45;;;;;;;8.30;5.85;;;;;;;19.13;41.20;96473.72;5023156;28;20029;-64
2021/04/27 09:47:17;;;;;;;7.15;5.82;;;;;;;19.39;41.41;96560.53;5023051;28;20147;-64
2021/04/27 09:50:00;;;;;;;8.20;6.32;;;;;;;19.37;41.52;96560.19;5022620;28;20521;-63
2021/04/27 09:52:27;;;;;;;6.80;6.00;;;;;;;19.62;41.39;96550.34;5020540;28;20528;-63
2021/04/27 09:54:56;;;;;;;8.02;6.97;;;;;;;20.35;39.72;96550.31;5021593;28;20540;-64
2021/04/27 09:57:31;;;;;;;7.13;6.43;;;;;;;20.22;39.04;96417.28;5022554;28;20049;-64
2021/04/27 10:00:35;;;;;;;10.93;8.18;;;;;;;21.28;38.43;96536.56;5021872;28;20076;-63
2021/04/27 10:03:09;;;;;;;8.20;6.15;;;;;;;21.91;37.11;96520.31;5021161;28;20033;-64
2021/04/27 10:05:36;;;;;;;9.50;6.38;;;;;;;21.51;36.82;96434.72;5022937;28;20497;-64
2021/04/27 10:08:03;;;;;;;6.43;5.75;;;;;;;20.81;37.93;96515.94;5023937;28;20408;-64
2021/04/27 10:10:38;;;;;;;10.63;6.72;;;;;;;21.10;38.01;96477.22;5022512;28;20029;-64
2021/04/27 10:13:08;;;;;;;17.02;9.57;;;;;;;21.42;37.93;96507.91;5022721;28;20042;-64
2021/04/27 10:15:34;;;;;;;7.53;6.35;;;;;;;21.59;37.26;96509.31;5022176;28;20121;-65
2021/04/27 10:18:01;;;;;;;7.40;6.60;;;;;;;20.39;37.09;96314.69;5023406;28;20108;-64
2021/04/27 10:20:27;;;;;;;9.25;6.82;;;;;;;21.97;36.08;96462.06;5022236;28;20025;-64
2021/04/27 10:22:53;;;;;;;8.18;6.80;;;;;;;21.50;36.98;96500.78;5022801;28;20041;-63
2021/04/27 10:25:28;;;;;;;7.07;6.38;;;;;;;22.18;36.03;96483.84;5021304;28;20049;-64
2021/04/27 10:27:59;;;;;;;7.72;7.00;;;;;;;22.49;36.04;96476.19;5022527;28;20079;-64
2021/04/27 10:30:25;;;;;;;9.20;6.15;;;;;;;21.44;37.64;96502.63;5022466;28;20048;-64
2021/04/27 10:33:03;;;;;;;8.63;6.78;;;;;;;22.14;36.56;96499.34;5040635;28;20420;-64
2021/04/27 10:35:30;;;;;;;7.82;6.35;;;;;;;22.84;35.45;96495.84;5025719;28;20037;-65
2021/04/27 10:38:07;;;;;;;7.00;6.45;;;;;;;22.88;34.90;96496.47;5026562;28;20034;-64
2021/04/27 10:40:51;;;;;;;9.48;6.65;;;;;;;21.71;36.86;96504.91;5025958;28;20052;-63
2021/04/27 10:43:26;;;;;;;7.07;6.43;;;;;;;22.71;36.06;96497.97;5026332;28;20068;-63
2021/04/27 10:46:17;;;;;;;7.75;6.95;;;;;;;23.66;34.95;96500.53;5023843;28;20069;-64
2021/04/27 10:48:45;;;;;;;7.97;7.18;;;;;;;23.83;34.01;96504.63;5023323;28;20077;-63
2021/04/27 10:51:20;;;;;;;7.60;6.90;;;;;;;21.88;36.64;96500.69;5025484;28;20046;-63
2021/04/27 10:54:09;;;;;;;7.32;6.60;;;;;;;21.41;37.86;96492.25;5026181;28;20510;-64
2021/04/27 10:56:36;;;;;;;10.38;6.32;;;;;;;21.12;38.16;96473.94;5025408;28;20127;-64
2021/04/27 10:59:10;;;;;;;8.82;6.40;;;;;;;21.28;38.13;96465.31;5024191;28;20139;-64
2021/04/27 11:01:40;;;;;;;6.97;6.30;;;;;;;21.25;38.18;96460.59;5023732;28;20033;-63
2021/04/27 11:04:06;;;;;;;11.63;7.18;;;;;;;20.57;38.10;96337.38;5025999;28;20499;-64
2021/04/27 11:06:31;;;;;;;10.50;5.95;;;;;;;20.98;38.49;96468.78;5025247;28;20061;-63
2021/04/27 11:08:59;;;;;;;8.55;6.72;;;;;;;21.41;38.00;96441.53;5008390;28;20125;-64
2021/04/27 11:11:28;;;;;;;8.82;6.85;;;;;;;21.55;38.02;96395.91;5004705;28;20034;-63
2021/04/27 11:14:21;;;;;;;10.77;6.35;;;;;;;21.18;38.14;96373.53;5019436;28;20140;-64
2021/04/27 11:16:53;;;;;;;8.15;6.53;;;;;;;22.09;36.99;96407.63;5003712;28;20117;-65
2021/04/27 11:19:19;;;;;;;6.95;5.75;;;;;;;21.07;39.08;96435.84;5005814;28;20544;-62
2021/04/27 11:21:50;;;;;;;6.43;5.82;;;;;;;20.91;39.91;96441.63;5006650;28;20041;-64
2021/04/27 11:24:35;;;;;;;7.15;6.45;;;;;;;20.76;39.16;96441.28;5025470;28;20045;-65
2021/04/27 11:27:01;;;;;;;6.78;6.03;;;;;;;18.78;40.22;96124.63;5025017;28;20029;-65
2021/04/27 11:29:32;;;;;;;8.32;6.63;;;;;;;19.81;40.46;96296.44;5023789;28;20033;-65